Time;durP1;ratioP1;P1;durP2;ratioP2;P2;SDS_P1;SDS_P2;PMS_P1;PMS_P2;Temp;Humidity;BMP_temperature;BMP_pressure;BME280_temperature;BME280_humidity;BME280_pressure;Samples;Min_cycle;Max_cycle;Signal;HPM_P1;HPM_P2
2023/06/12 04:02:48;;;;;;;4.53;3.07;;;15.00;97.30;;;;;;4994348;23;20521;-92
2023/06/12 04:05:21;;;;;;;4.43;3.43;;;15.00;97.30;;;;;;4957292;28;21063;-93
2023/06/12 04:07:50;;;;;;;12.53;4.00;;;15.00;97.30;;;;;;4954778;29;20609;-90
2023/06/12 04:10:17;;;;;;;8.90;3.33;;;15.00;97.30;;;;;;4951571;29;20435;-89
2023/06/12 04:12:50;;;;;;;6.93;5.27;;;15.00;97.30;;;;;;4930166;29;20439;-91
2023/06/12 04:15:20;;;;;;;5.97;3.97;;;15.10;97.30;;;;;;4929884;29;20435;-89
2023/06/12 04:17:49;;;;;;;10.07;3.87;;;15.10;97.30;;;;;;4930929;29;20505;-89
2023/06/12 04:20:15;;;;;;;2.87;2.67;;;15.20;97.30;;;;;;4962451;23;20493;-84
2023/06/12 04:22:41;;;;;;;5.27;3.23;;;15.20;97.30;;;;;;4953059;28;20807;-84
2023/06/12 04:25:08;;;;;;;4.33;3.07;;;15.20;97.30;;;;;;4944595;29;20207;-83
2023/06/12 04:27:34;;;;;;;4.70;2.30;;;15.20;97.30;;;;;;4951711;29;20207;-84
2023/06/12 04:30:00;;;;;;;5.27;2.47;;;15.20;97.30;;;;;;4952037;29;21031;-84
2023/06/12 04:32:25;;;;;;;3.07;2.33;;;15.30;97.30;;;;;;4951110;29;20419;-84
2023/06/12 04:34:52;;;;;;;3.60;3.30;;;15.30;97.30;;;;;;4945477;29;20183;-82
2023/06/12 04:37:18;;;;;;;4.40;3.10;;;15.30;97.30;;;;;;4944823;29;20261;-83
2023/06/12 04:39:45;;;;;;;9.03;2.43;;;15.30;97.30;;;;;;4951981;28;20434;-84
2023/06/12 04:42:16;;;;;;;4.40;2.60;;;15.40;97.30;;;;;;4953012;29;20430;-82
2023/06/12 04:44:42;;;;;;;4.13;3.50;;;15.40;97.10;;;;;;4952697;29;20419;-83
2023/06/12 04:47:10;;;;;;;3.90;2.70;;;15.40;96.50;;;;;;4952250;29;20814;-82
2023/06/12 04:49:40;;;;;;;2.57;2.37;;;15.40;96.60;;;;;;4953055;29;20218;-82
2023/06/12 04:52:07;;;;;;;3.97;2.87;;;15.50;96.20;;;;;;4953486;28;20547;-84
2023/06/12 04:54:35;;;;;;;2.77;2.57;;;15.50;96.10;;;;;;4952818;29;20421;-83
2023/06/12 04:57:16;;;;;;;3.77;3.57;;;15.60;95.90;;;;;;4952850;29;20558;-82
2023/06/12 04:59:45;;;;;;;4.17;2.80;;;15.70;95.70;;;;;;4952205;29;20450;-83
2023/06/12 05:02:11;;;;;;;5.37;1.87;;;15.70;95.60;;;;;;4945812;29;20946;-82
2023/06/12 05:04:37;;;;;;;4.60;3.20;;;15.70;95.50;;;;;;4952562;29;20573;-83
2023/06/12 05:07:13;;;;;;;1.90;1.80;;;15.80;95.20;;;;;;4954182;28;20845;-84
2023/06/12 05:09:39;;;;;;;2.60;2.10;;;15.80;94.80;;;;;;4956209;28;20738;-83
2023/06/12 05:12:06;;;;;;;5.43;2.20;;;15.80;94.70;;;;;;4955388;29;20418;-82
2023/06/12 05:14:33;;;;;;;2.43;2.23;;;15.90;94.50;;;;;;4956302;29;20187;-85
2023/06/12 05:17:00;;;;;;;2.43;2.00;;;15.90;94.50;;;;;;4956166;29;20458;-84
2023/06/12 05:19:25;;;;;;;3.20;1.90;;;16.00;94.10;;;;;;4955517;29;20473;-83
2023/06/12 05:21:51;;;;;;;5.10;2.67;;;16.00;93.70;;;;;;4955695;28;20915;-84
2023/06/12 05:24:17;;;;;;;7.30;2.40;;;16.10;93.70;;;;;;4952737;29;20183;-82
2023/06/12 05:26:42;;;;;;;2.30;2.10;;;16.20;93.50;;;;;;4948485;29;20235;-84
2023/06/12 05:29:08;;;;;;;3.30;2.67;;;16.30;93.10;;;;;;4955217;29;20199;-82
2023/06/12 05:31:33;;;;;;;4.17;3.17;;;16.30;92.90;;;;;;4955995;29;20191;-82
2023/06/12 05:33:59;;;;;;;2.17;2.00;;;16.40;92.30;;;;;;4955600;29;20431;-83
2023/06/12 05:36:24;;;;;;;2.77;2.03;;;16.50;92.20;;;;;;4956170;29;20207;-82
2023/06/12 05:38:50;;;;;;;1.90;1.80;;;16.60;91.20;;;;;;4954019;28;20632;-82
2023/06/12 05:41:16;;;;;;;3.23;2.47;;;16.70;89.20;;;;;;4955938;29;20191;-83
2023/06/12 05:43:44;;;;;;;6.77;1.73;;;16.80;89.20;;;;;;4950844;29;20230;-84
2023/06/12 05:46:10;;;;;;;6.40;1.90;;;16.90;89.20;;;;;;4947484;29;20191;-83
2023/06/12 05:48:36;;;;;;;6.37;2.43;;;16.90;89.00;;;;;;4953898;28;20446;-82
2023/06/12 05:51:03;;;;;;;3.37;2.47;;;17.00;88.10;;;;;;4944938;29;20792;-83
2023/06/12 05:53:28;;;;;;;4.90;2.27;;;17.00;88.10;;;;;;4946015;29;20441;-84
2023/06/12 05:55:54;;;;;;;4.20;2.20;;;17.10;88.20;;;;;;4955533;29;20454;-84
2023/06/12 05:58:21;;;;;;;2.47;2.27;;;17.20;88.00;;;;;;4948232;29;20224;-84
2023/06/12 06:00:49;;;;;;;2.37;2.20;;;17.20;87.50;;;;;;4955251;29;20194;-84
2023/06/12 06:03:15;;;;;;;1.90;1.80;;;17.30;87.50;;;;;;4947944;29;20438;-84
2023/06/12 06:05:40;;;;;;;1.70;1.60;;;17.30;86.80;;;;;;4955235;29;20415;-84
2023/06/12 06:08:06;;;;;;;1.80;1.80;;;17.40;86.60;;;;;;4955561;29;20966;-82
2023/06/12 06:10:32;;;;;;;1.83;1.73;;;17.40;86.70;;;;;;4956573;28;20242;-84
2023/06/12 06:12:57;;;;;;;1.37;1.30;;;17.50;86.30;;;;;;4954830;29;20221;-81
2023/06/12 06:15:23;;;;;;;1.50;1.43;;;17.60;86.10;;;;;;4956324;29;20194;-84
2023/06/12 06:17:48;;;;;;;2.90;2.27;;;17.60;86.30;;;;;;4954426;29;20738;-84
2023/06/12 06:20:15;;;;;;;5.73;2.10;;;17.70;85.90;;;;;;4954266;28;20306;-82
2023/06/12 06:22:43;;;;;;;1.83;1.73;;;17.80;85.80;;;;;;4954599;28;20183;-84
2023/06/12 06:25:09;;;;;;;3.60;2.17;;;17.80;85.60;;;;;;4951178;29;20428;-83
2023/06/12 06:27:35;;;;;;;4.93;2.90;;;17.90;86.00;;;;;;4950316;29;20980;-84
2023/06/12 06:30:02;;;;;;;2.50;1.50;;;18.00;84.90;;;;;;4953405;28;20542;-84
2023/06/12 06:32:27;;;;;;;2.03;1.70;;;18.00;85.00;;;;;;4953570;29;20427;-84
2023/06/12 06:34:53;;;;;;;1.90;1.80;;;18.10;85.00;;;;;;4951393;29;20423;-83
2023/06/12 06:37:18;;;;;;;2.03;1.60;;;18.10;84.90;;;;;;4952622;29;20720;-84
2023/06/12 06:39:45;;;;;;;2.40;2.23;;;18.20;84.80;;;;;;4945839;29;20697;-83
2023/06/12 06:42:11;;;;;;;1.90;1.67;;;18.20;84.70;;;;;;4952885;29;20187;-82
2023/06/12 06:44:36;;;;;;;2.07;1.93;;;18.30;84.90;;;;;;4951062;29;20469;-85
2023/06/12 06:47:03;;;;;;;2.93;1.77;;;18.40;85.00;;;;;;4953101;29;20498;-82
2023/06/12 06:49:30;;;;;;;4.37;2.80;;;18.40;84.90;;;;;;4954329;28;20210;-82
2023/06/12 06:51:56;;;;;;;3.40;2.43;;;18.50;84.90;;;;;;4951239;29;20948;-84
2023/06/12 06:54:21;;;;;;;2.00;1.90;;;18.60;84.80;;;;;;4943871;29;21064;-84
2023/06/12 06:56:48;;;;;;;4.27;2.10;;;18.70;84.60;;;;;;4950847;29;20477;-84
2023/06/12 06:59:14;;;;;;;3.00;2.13;;;18.70;84.60;;;;;;4944283;28;20226;-84
2023/06/12 07:01:40;;;;;;;2.80;2.60;;;18.80;84.20;;;;;;4954029;28;20470;-83
2023/06/12 07:04:06;;;;;;;4.33;2.63;;;18.80;84.50;;;;;;4951269;29;20423;-83
2023/06/12 07:06:33;;;;;;;2.80;2.23;;;18.90;84.70;;;;;;4952931;29;20183;-83
2023/06/12 07:08:59;;;;;;;3.23;2.00;;;19.00;85.20;;;;;;4952996;28;20233;-84
2023/06/12 07:11:24;;;;;;;2.50;2.30;;;19.10;84.70;;;;;;4951074;29;20435;-83
2023/06/12 07:13:50;;;;;;;3.07;1.80;;;19.20;83.30;;;;;;4951476;29;20429;-84
2023/06/12 07:16:16;;;;;;;4.40;2.40;;;19.20;84.00;;;;;;4952283;29;20199;-83
2023/06/12 07:18:41;;;;;;;2.80;2.63;;;19.30;84.60;;;;;;4953204;29;20325;-83
2023/06/12 07:21:06;;;;;;;1.77;1.77;;;19.40;84.20;;;;;;4952930;29;20360;-84
2023/06/12 07:23:32;;;;;;;12.00;2.97;;;19.50;84.10;;;;;;4952765;28;20210;-83
2023/06/12 07:25:57;;;;;;;4.77;2.80;;;19.60;84.40;;;;;;4944853;29;20215;-84
2023/06/12 07:28:23;;;;;;;2.63;2.07;;;19.60;83.80;;;;;;4951646;28;20191;-84
2023/06/12 07:30:48;;;;;;;3.00;2.83;;;19.70;83.30;;;;;;4946185;29;20634;-84
2023/06/12 07:33:15;;;;;;;6.27;2.47;;;19.80;82.80;;;;;;4952819;29;20193;-82
2023/06/12 07:35:40;;;;;;;6.20;3.07;;;19.80;82.30;;;;;;4953666;28;20179;-83
2023/06/12 07:38:06;;;;;;;2.07;1.87;;;19.90;81.80;;;;;;4951830;29;20462;-82
2023/06/12 07:40:31;;;;;;;3.87;3.20;;;20.00;82.30;;;;;;4953398;29;20203;-84
2023/06/12 07:42:57;;;;;;;2.40;1.47;;;20.10;81.60;;;;;;4952589;29;20395;-84
2023/06/12 07:45:23;;;;;;;4.00;2.77;;;20.20;80.60;;;;;;4945283;29;20379;-84
2023/06/12 07:47:49;;;;;;;2.53;2.33;;;20.30;81.00;;;;;;4952336;29;20426;-84
2023/06/12 07:50:15;;;;;;;1.60;1.50;;;20.40;81.60;;;;;;4945445;29;20545;-82
2023/06/12 07:52:41;;;;;;;1.33;1.30;;;20.50;81.60;;;;;;4950778;29;20565;-84
2023/06/12 07:55:07;;;;;;;4.10;2.60;;;20.70;82.00;;;;;;4949750;29;20789;-84
2023/06/12 07:57:32;;;;;;;9.03;3.33;;;20.80;81.70;;;;;;4952166;29;20564;-84
2023/06/12 07:59:58;;;;;;;3.90;2.23;;;20.90;81.50;;;;;;4935469;29;20435;-84
2023/06/12 08:02:28;;;;;;;1.53;1.43;;;21.00;79.80;;;;;;4951657;29;20175;-82
2023/06/12 08:04:55;;;;;;;1.63;1.53;;;21.10;78.70;;;;;;4946608;28;20819;-85
2023/06/12 08:07:21;;;;;;;1.83;1.80;;;21.10;77.80;;;;;;4945441;29;20546;-85
2023/06/12 08:09:47;;;;;;;4.43;3.27;;;21.20;77.30;;;;;;4952285;29;20514;-83
2023/06/12 08:12:12;;;;;;;1.40;1.40;;;21.30;77.20;;;;;;4952593;29;20185;-84
2023/06/12 08:14:39;;;;;;;6.07;2.43;;;21.30;77.80;;;;;;4952084;29;20205;-83
2023/06/12 08:17:04;;;;;;;6.23;2.10;;;21.40;77.50;;;;;;4949352;29;20289;-82
2023/06/12 08:19:32;;;;;;;2.90;2.47;;;21.50;78.00;;;;;;4951581;29;20570;-84
2023/06/12 08:21:58;;;;;;;4.30;2.53;;;21.60;78.00;;;;;;4947328;29;20180;-85
2023/06/12 08:24:29;;;;;;;7.73;3.83;;;21.80;77.80;;;;;;4945286;29;20836;-86
2023/06/12 08:26:55;;;;;;;6.60;2.87;;;21.80;76.70;;;;;;4946366;29;20529;-85
2023/06/12 08:29:21;;;;;;;2.50;2.27;;;21.90;77.50;;;;;;4945843;29;20458;-88
2023/06/12 08:31:46;;;;;;;4.53;2.03;;;22.10;77.40;;;;;;4946708;29;20418;-84
2023/06/12 08:34:12;;;;;;;5.53;2.90;;;22.20;77.00;;;;;;4950132;29;20179;-82
2023/06/12 08:36:37;;;;;;;2.13;2.03;;;22.30;76.50;;;;;;4952714;29;20207;-84
2023/06/12 08:39:03;;;;;;;2.07;1.60;;;22.40;76.70;;;;;;4951225;28;20206;-84
2023/06/12 08:41:32;;;;;;;1.77;1.73;;;22.40;75.40;;;;;;4951770;29;20187;-85
2023/06/12 08:44:01;;;;;;;1.47;1.37;;;22.50;74.80;;;;;;4953596;28;20430;-84
2023/06/12 08:46:30;;;;;;;2.63;1.70;;;22.60;74.50;;;;;;4955882;29;20434;-85
2023/06/12 08:48:59;;;;;;;3.73;2.30;;;22.70;73.10;;;;;;4954712;29;20851;-84
2023/06/12 08:51:25;;;;;;;1.90;1.80;;;22.80;70.60;;;;;;4955914;28;20512;-84
2023/06/12 08:53:51;;;;;;;1.60;1.50;;;22.80;71.70;;;;;;4946470;29;20710;-82
2023/06/12 08:56:17;;;;;;;4.00;2.50;;;22.90;71.70;;;;;;4956050;29;20445;-82
2023/06/12 08:58:42;;;;;;;2.10;1.73;;;23.00;72.00;;;;;;4955625;29;20222;-84
2023/06/12 09:01:12;;;;;;;2.40;1.93;;;23.10;72.10;;;;;;4947163;29;20175;-85
2023/06/12 09:03:43;;;;;;;2.13;1.77;;;23.10;70.90;;;;;;4952735;29;20654;-84
2023/06/12 09:06:11;;;;;;;1.80;1.73;;;23.20;70.70;;;;;;4947648;29;20438;-85
2023/06/12 09:08:38;;;;;;;5.63;1.73;;;23.30;70.20;;;;;;4944374;29;20458;-84
2023/06/12 09:11:04;;;;;;;1.70;1.60;;;23.40;70.90;;;;;;4952626;29;20429;-83
2023/06/12 09:13:42;;;;;;;3.03;2.60;;;23.40;71.30;;;;;;4954324;29;20434;-82
2023/06/12 09:16:14;;;;;;;1.93;1.90;;;23.50;71.00;;;;;;4947001;29;20180;-84
2023/06/12 09:18:51;;;;;;;5.13;2.80;;;23.50;69.40;;;;;;4946351;28;20458;-84
2023/06/12 09:21:17;;;;;;;1.10;1.00;;;23.50;69.60;;;;;;4954666;29;20458;-83
2023/06/12 09:23:45;;;;;;;1.87;1.60;;;23.50;69.30;;;;;;4954920;29;20462;-83
2023/06/12 09:26:15;;;;;;;1.20;1.10;;;23.50;68.70;;;;;;4948844;29;20214;-87
2023/06/12 09:28:42;;;;;;;2.33;2.13;;;23.50;68.40;;;;;;4949671;29;20462;-86
2023/06/12 09:31:08;;;;;;;1.57;1.53;;;23.50;69.20;;;;;;4945384;29;20427;-85
2023/06/12 09:33:38;;;;;;;3.10;2.60;;;23.60;69.60;;;;;;4948297;29;20962;-85
2023/06/12 09:36:04;;;;;;;4.60;2.73;;;23.70;70.10;;;;;;4953447;28;20485;-83
2023/06/12 09:38:35;;;;;;;3.10;2.40;;;23.80;69.80;;;;;;4940460;28;20485;-84
2023/06/12 09:41:03;;;;;;;5.30;2.53;;;23.90;69.10;;;;;;4949142;29;20416;-87
2023/06/12 09:43:29;;;;;;;1.90;1.80;;;23.90;70.30;;;;;;4945548;29;20434;-84
2023/06/12 09:45:55;;;;;;;2.83;2.00;;;24.00;68.40;;;;;;4947167;29;21049;-82
2023/06/12 09:48:21;;;;;;;3.50;2.33;;;24.00;68.30;;;;;;4942123;28;20427;-83
2023/06/12 09:50:46;;;;;;;4.13;2.00;;;24.10;68.50;;;;;;4943994;29;20270;-83
2023/06/12 09:53:16;;;;;;;2.40;2.20;;;24.10;68.50;;;;;;4948387;29;20179;-83
2023/06/12 09:55:44;;;;;;;7.53;3.07;;;24.10;67.90;;;;;;4952338;28;20231;-85
2023/06/12 09:58:13;;;;;;;4.50;3.00;;;24.10;69.20;;;;;;4952920;28;21184;-84
2023/06/12 10:00:39;;;;;;;3.33;3.13;;;24.20;69.40;;;;;;4952810;29;20431;-85
2023/06/12 10:03:09;;;;;;;3.40;2.10;;;24.30;69.60;;;;;;4944846;29;20427;-83
2023/06/12 10:05:42;;;;;;;5.40;2.80;;;24.40;68.50;;;;;;4952254;29;20840;-84
2023/06/12 10:08:08;;;;;;;2.33;1.80;;;24.30;67.50;;;;;;4943013;29;20458;-85
2023/06/12 10:10:35;;;;;;;2.23;2.07;;;24.40;68.20;;;;;;4950510;28;20430;-85
2023/06/12 10:13:04;;;;;;;1.70;1.60;;;24.40;69.30;;;;;;4946491;29;20434;-84
2023/06/12 10:15:31;;;;;;;1.57;1.47;;;24.50;69.70;;;;;;4953588;29;20427;-84
2023/06/12 10:17:58;;;;;;;3.73;2.07;;;24.60;69.70;;;;;;4947361;29;20470;-85
2023/06/12 10:20:24;;;;;;;2.00;1.90;;;24.60;68.50;;;;;;4952984;29;20498;-84
2023/06/12 10:22:52;;;;;;;2.23;1.60;;;24.70;67.50;;;;;;4952796;29;20795;-84
2023/06/12 10:25:18;;;;;;;2.87;2.67;;;24.60;68.10;;;;;;4952295;29;20530;-84
2023/06/12 10:27:46;;;;;;;2.20;2.00;;;24.60;68.80;;;;;;4948861;29;20517;-86
2023/06/12 10:30:15;;;;;;;3.67;2.37;;;24.60;69.70;;;;;;4952520;28;20454;-83
2023/06/12 10:32:42;;;;;;;2.10;1.97;;;24.70;69.80;;;;;;4945921;29;20803;-86
2023/06/12 10:35:08;;;;;;;2.10;1.60;;;24.80;69.90;;;;;;4944502;29;20427;-84
2023/06/12 10:37:39;;;;;;;4.87;2.90;;;24.90;70.20;;;;;;4943440;29;20474;-86
2023/06/12 10:40:07;;;;;;;6.83;2.57;;;25.00;70.10;;;;;;4937729;29;20678;-86
2023/06/12 10:42:51;;;;;;;3.20;2.30;;;25.10;69.40;;;;;;4951589;29;20454;-84
2023/06/12 10:45:19;;;;;;;2.80;1.93;;;25.20;66.80;;;;;;4942110;29;20819;-87
2023/06/12 10:48:06;;;;;;;2.40;2.20;;;25.20;67.50;;;;;;4944973;29;20422;-87
2023/06/12 10:50:36;;;;;;;2.30;2.10;;;25.20;66.60;;;;;;4944445;29;20976;-85
2023/06/12 10:53:04;;;;;;;5.33;3.33;;;25.20;66.30;;;;;;4945746;29;20431;-82
2023/06/12 10:55:29;;;;;;;3.67;3.37;;;25.10;66.20;;;;;;4950770;29;20439;-86
2023/06/12 10:58:12;;;;;;;1.87;1.77;;;25.10;66.70;;;;;;4936321;29;20578;-84
2023/06/12 11:00:49;;;;;;;3.40;2.33;;;25.10;67.20;;;;;;4939032;29;20183;-85
2023/06/12 11:03:25;;;;;;;3.17;2.40;;;25.10;67.00;;;;;;4951086;29;20496;-83
2023/06/12 11:05:58;;;;;;;4.83;3.50;;;25.10;67.60;;;;;;4943281;28;20478;-85
2023/06/12 11:08:27;;;;;;;2.77;2.57;;;25.10;65.90;;;;;;4942027;28;20872;-84
2023/06/12 11:10:53;;;;;;;3.63;2.10;;;25.10;68.30;;;;;;4945743;29;21421;-85
2023/06/12 11:13:26;;;;;;;2.90;2.70;;;25.10;68.70;;;;;;4949520;29;20521;-84
2023/06/12 11:15:52;;;;;;;2.93;2.07;;;25.30;68.30;;;;;;4942319;29;20177;-83
2023/06/12 11:18:18;;;;;;;4.57;3.00;;;25.40;67.00;;;;;;4946803;28;20478;-84
2023/06/12 11:20:51;;;;;;;3.27;3.10;;;25.40;65.20;;;;;;4947585;28;20953;-84
2023/06/12 11:23:27;;;;;;;2.03;1.93;;;25.40;65.30;;;;;;4945638;29;20431;-85
2023/06/12 11:25:55;;;;;;;3.27;2.63;;;25.30;67.50;;;;;;4948094;29;20434;-84
2023/06/12 11:28:25;;;;;;;2.50;2.37;;;25.40;66.50;;;;;;4949157;28;20431;-85
2023/06/12 11:30:53;;;;;;;2.50;1.70;;;25.40;65.80;;;;;;4947526;29;20855;-84
2023/06/12 11:33:19;;;;;;;2.27;2.07;;;25.50;67.50;;;;;;4944672;29;20956;-85
2023/06/12 11:35:47;;;;;;;3.53;2.40;;;25.60;66.50;;;;;;4948186;29;20449;-83
2023/06/12 11:38:21;;;;;;;2.57;2.37;;;25.70;66.60;;;;;;4949058;29;20685;-85
2023/06/12 11:40:49;;;;;;;2.13;1.97;;;25.70;65.80;;;;;;4946344;29;20439;-85
2023/06/12 11:43:19;;;;;;;4.20;2.47;;;25.80;66.20;;;;;;4952721;29;20435;-82
2023/06/12 11:45:45;;;;;;;3.63;3.30;;;25.80;64.70;;;;;;4944309;29;20426;-85
2023/06/12 11:48:16;;;;;;;4.03;1.97;;;25.80;65.40;;;;;;4953083;28;20447;-85
2023/06/12 11:50:43;;;;;;;2.20;2.00;;;25.90;65.10;;;;;;4952441;28;20442;-85
2023/06/12 11:53:09;;;;;;;3.83;2.03;;;25.90;65.10;;;;;;4953652;28;20414;-84
2023/06/12 11:55:36;;;;;;;2.07;1.93;;;26.00;66.00;;;;;;4945897;29;20510;-81
2023/06/12 11:58:03;;;;;;;3.00;2.20;;;26.10;67.30;;;;;;4949496;29;20489;-85
2023/06/12 12:00:30;;;;;;;1.87;1.60;;;26.20;66.10;;;;;;4951532;28;20986;-85
2023/06/12 12:03:01;;;;;;;2.20;1.90;;;26.30;65.90;;;;;;4951430;28;20426;-82
2023/06/12 12:05:26;;;;;;;2.40;2.07;;;26.30;66.60;;;;;;4942085;29;20422;-85
2023/06/12 12:07:57;;;;;;;1.83;1.73;;;26.40;65.80;;;;;;4947989;28;20534;-85
2023/06/12 12:10:23;;;;;;;6.00;2.27;;;26.40;66.80;;;;;;4947379;28;20577;-82
2023/06/12 12:12:59;;;;;;;2.70;1.93;;;26.40;65.70;;;;;;4947141;29;20420;-85
2023/06/12 12:15:26;;;;;;;1.73;1.60;;;26.50;66.30;;;;;;4949045;29;20433;-82
2023/06/12 12:17:52;;;;;;;2.13;1.90;;;26.50;65.80;;;;;;4949988;28;20541;-86
2023/06/12 12:20:21;;;;;;;2.50;2.30;;;26.60;66.90;;;;;;4938355;29;21048;-83
2023/06/12 12:22:48;;;;;;;4.07;2.80;;;26.60;64.50;;;;;;4944396;29;20422;-85
2023/06/12 12:25:20;;;;;;;1.60;1.47;;;26.60;64.60;;;;;;4942454;29;20498;-85
2023/06/12 12:27:46;;;;;;;3.03;1.93;;;26.50;64.30;;;;;;4948929;29;20443;-82
2023/06/12 12:30:15;;;;;;;2.23;2.03;;;26.40;64.20;;;;;;4951940;28;20873;-85
2023/06/12 12:32:44;;;;;;;2.60;2.37;;;26.40;66.40;;;;;;4955713;29;20238;-85
2023/06/12 12:35:10;;;;;;;3.07;2.80;;;26.50;66.90;;;;;;4956252;28;20707;-85
2023/06/12 12:37:36;;;;;;;2.60;2.20;;;26.70;66.70;;;;;;4955666;29;20498;-82
2023/06/12 12:40:08;;;;;;;3.90;1.83;;;26.90;66.10;;;;;;4956302;28;20480;-82
2023/06/12 12:42:34;;;;;;;7.53;3.40;;;27.00;64.40;;;;;;4949689;29;20654;-84
2023/06/12 12:44:59;;;;;;;2.00;1.77;;;27.10;66.00;;;;;;4953176;29;20458;-86
2023/06/12 12:47:25;;;;;;;2.03;1.73;;;27.20;64.90;;;;;;4953533;29;20376;-85
2023/06/12 12:49:51;;;;;;;2.80;2.07;;;27.20;64.20;;;;;;4953577;28;20241;-85
2023/06/12 12:52:16;;;;;;;2.57;2.37;;;27.30;65.40;;;;;;4953261;29;20817;-82
2023/06/12 12:54:42;;;;;;;4.17;2.50;;;27.30;65.40;;;;;;4954286;29;20226;-82
2023/06/12 12:57:08;;;;;;;2.47;2.20;;;27.40;64.60;;;;;;4956148;28;20210;-85
2023/06/12 12:59:34;;;;;;;2.30;2.10;;;27.40;64.80;;;;;;4954982;29;20231;-85
2023/06/12 13:01:59;;;;;;;2.80;2.13;;;27.40;63.70;;;;;;4955234;29;20718;-85
2023/06/12 13:04:25;;;;;;;1.83;1.73;;;27.40;64.90;;;;;;4954215;29;20278;-82
2023/06/12 13:06:51;;;;;;;5.30;2.03;;;27.40;64.50;;;;;;4948932;29;20183;-86
2023/06/12 13:09:17;;;;;;;5.63;3.10;;;27.40;63.10;;;;;;4945416;29;20210;-82
2023/06/12 13:11:43;;;;;;;2.40;2.20;;;27.40;64.60;;;;;;4951569;29;20424;-85
2023/06/12 13:14:08;;;;;;;2.80;1.47;;;27.60;65.90;;;;;;4949175;29;20205;-85
2023/06/12 13:16:34;;;;;;;3.53;2.50;;;27.60;64.00;;;;;;4942459;29;20183;-81
2023/06/12 13:19:00;;;;;;;2.47;2.23;;;27.60;63.10;;;;;;4955848;28;20242;-85
2023/06/12 13:21:25;;;;;;;4.40;2.53;;;27.50;64.00;;;;;;4953726;29;20175;-82
2023/06/12 13:23:51;;;;;;;2.70;2.27;;;27.40;63.70;;;;;;4953430;29;20189;-84
2023/06/12 13:26:16;;;;;;;1.83;1.70;;;27.40;64.00;;;;;;4953337;29;20190;-85
2023/06/12 13:28:42;;;;;;;3.43;1.77;;;27.40;64.80;;;;;;4944385;29;20204;-85
2023/06/12 13:31:07;;;;;;;2.10;1.87;;;27.50;64.60;;;;;;4943329;29;20275;-85
2023/06/12 13:33:33;;;;;;;4.03;2.20;;;27.60;65.60;;;;;;4953548;29;20179;-85
2023/06/12 13:36:02;;;;;;;5.20;2.17;;;27.80;65.30;;;;;;4954735;29;20218;-85
2023/06/12 13:38:29;;;;;;;2.37;2.20;;;27.90;63.30;;;;;;4954865;29;20230;-82
2023/06/12 13:40:54;;;;;;;1.73;1.63;;;27.80;63.70;;;;;;4954107;28;20785;-82
2023/06/12 13:43:20;;;;;;;2.43;1.87;;;27.80;64.80;;;;;;4946100;29;20490;-85
2023/06/12 13:45:46;;;;;;;3.13;2.27;;;27.90;65.40;;;;;;4953478;29;20187;-84
2023/06/12 13:48:11;;;;;;;3.13;2.27;;;28.00;64.40;;;;;;4952626;29;20179;-85
2023/06/12 13:50:38;;;;;;;1.30;1.20;;;28.00;65.00;;;;;;4954382;29;20201;-84
2023/06/12 13:53:03;;;;;;;1.50;1.43;;;28.20;64.90;;;;;;4953903;29;20187;-86
2023/06/12 13:55:29;;;;;;;2.30;2.10;;;28.20;63.70;;;;;;4951994;29;20423;-84
2023/06/12 13:57:57;;;;;;;5.07;2.43;;;28.10;63.40;;;;;;4952822;29;20109;-84
2023/06/12 14:00:23;;;;;;;2.70;1.60;;;28.10;64.20;;;;;;4945912;28;20379;-84
2023/06/12 14:02:51;;;;;;;2.23;1.40;;;28.10;64.80;;;;;;4953621;29;20498;-85
2023/06/12 14:05:17;;;;;;;2.07;1.73;;;28.20;64.20;;;;;;4949469;28;20434;-80
2023/06/12 14:07:42;;;;;;;1.80;1.70;;;28.30;63.80;;;;;;4945065;29;20492;-82
2023/06/12 14:10:09;;;;;;;2.80;2.33;;;28.30;63.20;;;;;;4950653;29;20203;-85
2023/06/12 14:12:34;;;;;;;2.40;1.70;;;28.30;63.50;;;;;;4951885;29;20694;-82
2023/06/12 14:15:00;;;;;;;1.57;1.47;;;28.40;64.10;;;;;;4951745;29;20570;-84
2023/06/12 14:17:26;;;;;;;2.10;1.93;;;28.50;62.60;;;;;;4950089;29;20270;-85
2023/06/12 14:19:51;;;;;;;1.70;1.60;;;28.60;63.60;;;;;;4947761;28;20229;-84
2023/06/12 14:22:17;;;;;;;1.83;1.57;;;28.80;63.40;;;;;;4947762;29;20222;-81
2023/06/12 14:24:42;;;;;;;4.07;1.97;;;28.90;63.80;;;;;;4949311;29;20191;-80
2023/06/12 14:27:08;;;;;;;6.00;2.77;;;29.00;63.10;;;;;;4950590;29;20278;-85
2023/06/12 14:29:33;;;;;;;2.60;2.27;;;29.10;62.00;;;;;;4955698;29;20211;-85
2023/06/12 14:31:59;;;;;;;1.80;1.70;;;29.20;61.20;;;;;;4958699;29;20286;-85
2023/06/12 14:34:25;;;;;;;3.40;1.67;;;29.20;63.20;;;;;;4956619;29;20186;-86
2023/06/12 14:36:51;;;;;;;2.30;1.43;;;29.20;60.70;;;;;;4959060;29;20250;-84
2023/06/12 14:39:16;;;;;;;3.40;2.30;;;29.20;61.90;;;;;;4955522;28;20447;-82
2023/06/12 14:41:42;;;;;;;1.70;1.47;;;29.20;61.20;;;;;;4956358;28;20171;-85
2023/06/12 14:44:07;;;;;;;1.60;1.30;;;29.30;62.50;;;;;;4957669;29;20179;-86
2023/06/12 14:46:33;;;;;;;2.73;2.50;;;29.30;61.30;;;;;;4948353;29;20211;-86
2023/06/12 14:48:58;;;;;;;1.73;1.60;;;29.50;62.30;;;;;;4947423;28;20190;-87
2023/06/12 14:51:24;;;;;;;3.03;2.83;;;29.50;61.40;;;;;;4951276;29;20191;-86
2023/06/12 14:53:49;;;;;;;2.23;2.00;;;29.40;61.50;;;;;;4948851;29;20189;-85
2023/06/12 14:56:15;;;;;;;2.83;1.73;;;29.40;62.80;;;;;;4952775;29;20184;-86
2023/06/12 14:58:40;;;;;;;3.00;2.23;;;29.50;63.40;;;;;;4951638;29;20325;-83
2023/06/12 15:01:06;;;;;;;2.83;1.67;;;29.60;63.20;;;;;;4943797;29;20192;-83
2023/06/12 15:03:31;;;;;;;3.83;1.90;;;29.60;63.00;;;;;;4950713;29;20175;-86
2023/06/12 15:05:57;;;;;;;4.13;2.37;;;29.50;61.00;;;;;;4950298;29;20681;-85
2023/06/12 15:08:22;;;;;;;3.83;2.20;;;29.40;61.70;;;;;;4948084;28;20657;-86
2023/06/12 15:10:49;;;;;;;2.53;1.90;;;29.40;62.80;;;;;;4945362;29;20179;-86
2023/06/12 15:13:15;;;;;;;1.67;1.60;;;29.50;62.60;;;;;;4944795;29;20337;-87
2023/06/12 15:15:40;;;;;;;4.27;2.10;;;29.50;62.10;;;;;;4948015;29;20992;-85
2023/06/12 15:18:06;;;;;;;1.77;1.67;;;29.50;62.00;;;;;;4942561;29;20199;-86
2023/06/12 15:20:32;;;;;;;2.60;1.57;;;29.40;60.30;;;;;;4942742;29;20242;-86
2023/06/12 15:22:57;;;;;;;1.50;1.40;;;29.30;61.90;;;;;;4951495;29;20176;-85
2023/06/12 15:25:23;;;;;;;1.47;1.37;;;29.30;62.60;;;;;;4951788;29;20670;-85
2023/06/12 15:27:49;;;;;;;1.27;1.10;;;29.30;63.40;;;;;;4950843;29;20191;-85
2023/06/12 15:30:14;;;;;;;2.30;2.00;;;29.50;62.90;;;;;;4946864;29;20191;-85
2023/06/12 15:32:41;;;;;;;1.77;1.70;;;29.60;61.80;;;;;;4946104;29;20673;-85
2023/06/12 15:35:08;;;;;;;2.30;2.10;;;29.60;61.90;;;;;;4948445;29;20170;-86
2023/06/12 15:37:33;;;;;;;3.00;2.87;;;29.60;61.90;;;;;;4948974;29;20470;-86
2023/06/12 15:39:59;;;;;;;2.47;2.20;;;29.60;61.40;;;;;;4950130;29;20431;-85
2023/06/12 15:42:24;;;;;;;2.40;2.20;;;29.60;62.40;;;;;;4950930;29;20183;-85
2023/06/12 15:44:50;;;;;;;4.80;2.03;;;29.50;59.90;;;;;;4950060;29;20187;-87
2023/06/12 15:47:15;;;;;;;3.03;1.83;;;29.40;61.60;;;;;;4949551;29;20214;-87
2023/06/12 15:49:41;;;;;;;2.53;1.87;;;29.30;62.30;;;;;;4949042;28;20198;-89
2023/06/12 15:52:07;;;;;;;3.67;2.67;;;29.40;62.10;;;;;;4947762;28;20179;-86
2023/06/12 15:54:33;;;;;;;1.53;1.50;;;29.40;61.00;;;;;;4947738;29;20183;-89
2023/06/12 15:56:58;;;;;;;1.83;1.73;;;29.40;61.90;;;;;;4949005;29;20207;-84
2023/06/12 15:59:24;;;;;;;3.40;2.17;;;29.40;61.70;;;;;;4950155;28;20501;-86
2023/06/12 16:01:52;;;;;;;4.87;2.93;;;29.40;61.70;;;;;;4945699;29;20230;-82
2023/06/12 16:04:20;;;;;;;2.17;1.97;;;29.40;62.30;;;;;;4947763;29;20191;-86
2023/06/12 16:06:47;;;;;;;2.60;1.67;;;29.40;62.00;;;;;;4950762;29;20415;-86
2023/06/12 16:09:12;;;;;;;2.87;1.33;;;29.50;62.70;;;;;;4950799;28;20443;-86
2023/06/12 16:11:38;;;;;;;2.70;2.33;;;29.50;61.70;;;;;;4949265;29;20482;-85
2023/06/12 16:14:04;;;;;;;2.27;2.07;;;29.50;62.10;;;;;;4949045;29;20179;-83
2023/06/12 16:16:29;;;;;;;2.30;1.63;;;29.50;61.90;;;;;;4949688;29;20246;-85
2023/06/12 16:18:55;;;;;;;3.50;2.73;;;29.50;61.30;;;;;;4951115;29;21094;-86
2023/06/12 16:21:20;;;;;;;2.40;2.20;;;29.40;61.40;;;;;;4971059;23;20242;-64
2023/06/12 16:23:46;;;;;;;1.53;1.43;;;29.30;61.40;;;;;;4956004;28;20275;-63
2023/06/12 16:26:12;;;;;;;2.47;2.23;;;29.30;62.10;;;;;;4958680;28;20272;-64
2023/06/12 16:28:37;;;;;;;2.00;1.63;;;29.40;62.90;;;;;;4960016;28;20277;-64
2023/06/12 16:31:02;;;;;;;3.80;2.20;;;29.40;62.00;;;;;;4962649;28;20203;-63
2023/06/12 16:33:28;;;;;;;2.60;1.43;;;29.50;62.50;;;;;;4966126;28;20207;-64
2023/06/12 16:35:54;;;;;;;1.50;1.30;;;29.40;61.60;;;;;;4966374;28;20677;-64
2023/06/12 16:38:20;;;;;;;2.57;2.37;;;29.30;61.20;;;;;;4959345;28;20206;-63
2023/06/12 16:40:47;;;;;;;2.30;2.20;;;29.20;61.40;;;;;;4958273;28;20199;-65
2023/06/12 16:43:13;;;;;;;1.77;1.67;;;29.20;61.60;;;;;;4955863;28;20513;-64
2023/06/12 16:45:39;;;;;;;2.87;2.00;;;29.00;60.60;;;;;;4958304;28;20860;-63